CST,Max TemperatureF,Mean TemperatureF,Min TemperatureF,Max Dew PointF,MeanDew PointF,Min DewpointF,Max Humidity, Mean Humidity, Min Humidity, Max Sea Level PressureIn, Mean Sea Level PressureIn, Min Sea Level PressureIn, Max VisibilityMiles, Mean VisibilityMiles, Min VisibilityMiles, Max Wind SpeedMPH, Mean Wind SpeedMPH, Max Gust SpeedMPH,PrecipitationIn, CloudCover, Events, WindDirDegrees
2013-11-1,59,48,37,43,39,36,93,76,42,29.98,29.78,29.60,10,10,3,32,8,40,0.05,4,Rain,290
2013-11-2,55,44,32,43,36,30,93,75,41,30.20,30.12,29.97,10,10,9,16,10,23,0.00,2,,305
2013-11-3,57,42,28,37,33,28,100,63,38,30.14,30.00,29.85,10,10,9,25,8,41,0.00,0,,162
2013-11-4,59,52,46,46,43,39,87,69,58,30.15,29.98,29.85,10,10,10,18,11,25,0.00,7,,175
2013-11-5,59,49,39,57,46,32,100,89,38,30.14,29.98,29.81,10,7,1,18,9,26,0.41,8,Rain,89
2013-11-6,44,36,28,37,33,28,100,86,61,30.31,30.19,29.98,10,9,1,20,12,28,0.01,6,,320
2013-11-7,50,36,23,48,31,9,100,75,43,30.40,30.35,30.29,10,10,0,17,4,24,0.00,0,Fog,284
2013-11-8,64,44,23,43,34,0,76,52,31,30.33,30.01,29.79,10,10,9,37,8,48,0.00,0,,192
2013-11-9,60,46,32,39,33,30,93,60,34,30.34,30.13,29.94,10,10,10,16,7,20,0.00,0,,309
2013-11-10,53,38,24,32,29,23,100,64,33,30.45,30.34,30.19,10,10,4,12,4,16,0.00,3,,173
2013-11-11,48,34,19,45,27,12,93,74,64,30.75,30.38,30.13,10,10,10,24,11,33,0.00,5,,3
2013-11-12,32,22,12,12,9,5,93,66,32,30.90,30.78,30.63,10,10,10,14,8,,0.00,0,,312
2013-11-13,50,32,15,23,17,10,80,54,32,30.63,30.34,30.07,10,10,10,21,10,29,0.00,0,,186
2013-11-14,55,42,30,30,25,19,86,53,33,30.07,29.98,29.92,10,10,10,16,9,22,0.00,0,,203
2013-11-15,57,40,24,43,33,23,100,72,44,29.94,29.84,29.69,10,10,10,16,5,21,0.00,0,,175
2013-11-16,71,58,46,72,40,-40,100,73,4,29.68,29.46,29.34,10,10,10,29,13,45,0.01,5,Rain,188
2013-11-17,60,46,33,50,41,32,100,77,39,30.07,29.62,29.28,10,10,0,24,7,39,0.00,3,Fog-Rain,323
2013-11-18,55,40,24,36,29,21,93,73,35,30.29,30.20,30.07,10,10,8,12,6,17,0.00,0,,275
2013-11-19,60,42,23,32,25,21,100,55,23,30.25,30.09,29.96,10,10,10,24,7,33,0.00,3,,161
2013-11-20,50,44,37,39,34,21,100,66,37,29.97,29.91,29.83,10,10,4,20,13,28,0.08,2,Rain,153
2013-11-21,39,32,24,37,28,0,100,88,31,30.50,30.22,29.98,10,7,3,23,10,30,0.03,6,Rain-Snow,354
2013-11-22,24,20,15,23,16,12,100,81,64,30.69,30.62,30.51,10,10,6,20,12,31,0.00,2,Rain,336
2013-11-23,21,14,8,18,10,5,100,79,62,30.87,30.79,30.63,10,10,9,17,8,23,0.00,0,,2
2013-11-24,26,16,6,16,10,3,92,71,47,30.79,30.55,30.28,10,10,9,15,6,23,0.00,1,,181
2013-11-25,39,32,26,28,22,16,93,71,56,30.28,30.19,30.14,10,10,10,16,9,20,0.00,4,,219
2013-11-26,33,24,15,25,17,9,93,67,43,30.42,30.31,30.18,10,10,10,25,10,34,0.00,2,,329
2013-11-27,30,20,10,30,13,7,100,71,47,30.44,30.29,30.09,10,10,9,16,7,20,0.00,0,,212
2013-11-28,33,24,14,21,18,10,93,73,52,30.52,30.33,30.09,10,10,10,20,8,24,0.00,0,,318
2013-11-29,46,29,12,28,20,10,100,74,46,30.53,30.38,30.21,10,10,10,15,4,20,0.00,0,,158
2013-11-30,55,37,19,32,26,18,100,77,41,30.21,30.13,30.07,10,10,10,8,2,,0.00,0,,218